createdAt,value
2023-03-20T00:01:31.168Z,45.45
2023-03-20T00:04:06.208Z,54.42
2023-03-20T00:06:39.943Z,67.95
2023-03-20T00:09:13.705Z,49.15
2023-03-20T00:11:50.127Z,54.13
2023-03-20T00:14:25.285Z,52.42
2023-03-20T00:16:59.244Z,51.30
2023-03-20T00:19:34.222Z,47.85
2023-03-20T00:22:07.707Z,61.03
2023-03-20T00:24:41.234Z,55.33
2023-03-20T00:27:16.197Z,54.35
2023-03-20T00:29:49.800Z,54.97
2023-03-20T00:32:23.728Z,62.55
2023-03-20T00:34:58.724Z,41.58
2023-03-20T00:37:32.218Z,48.05
2023-03-20T00:40:06.762Z,55.10
2023-03-20T00:42:40.569Z,51.67
2023-03-20T00:45:17.007Z,49.00
2023-03-20T00:47:52.930Z,51.47
2023-03-20T00:50:30.163Z,46.85
2023-03-20T00:53:04.882Z,57.63
2023-03-20T00:55:41.601Z,54.28
2023-03-20T00:58:15.057Z,52.00
2023-03-20T01:00:48.639Z,48.10
2023-03-20T01:03:24.231Z,48.03
2023-03-20T01:05:59.174Z,44.78
2023-03-20T01:08:32.669Z,47.00
2023-03-20T01:11:06.598Z,39.58
2023-03-20T01:13:41.548Z,36.60
2023-03-20T01:16:22.900Z,47.28
2023-03-20T01:18:56.868Z,41.08
2023-03-20T01:21:32.212Z,38.80
2023-03-20T01:24:05.864Z,49.40
2023-03-20T01:26:42.185Z,40.00
2023-03-20T01:29:20.731Z,49.72
2023-03-20T01:31:55.245Z,51.40
2023-03-20T01:34:31.137Z,45.58
2023-03-20T01:37:10.774Z,50.33
2023-03-20T01:39:44.366Z,48.78
2023-03-20T01:42:18.512Z,49.55
2023-03-20T01:44:52.945Z,46.33
2023-03-20T01:47:27.858Z,41.70
2023-03-20T01:50:27.417Z,44.85
2023-03-20T01:53:29.991Z,45.03
2023-03-20T01:56:08.135Z,44.80
2023-03-20T01:58:52.619Z,36.13
2023-03-20T02:01:27.745Z,40.33
2023-03-20T02:04:01.367Z,43.38
2023-03-20T02:06:56.284Z,44.22
2023-03-20T02:09:43.481Z,41.58
2023-03-20T02:12:23.548Z,41.90
2023-03-20T02:14:58.765Z,32.00
2023-03-20T02:17:54.005Z,34.67
2023-03-20T02:20:47.039Z,36.45
2023-03-20T02:23:48.925Z,40.28
2023-03-20T02:26:40.377Z,41.10
2023-03-20T02:29:42.443Z,33.42
2023-03-20T02:32:45.506Z,36.38
2023-03-20T02:35:40.933Z,38.17
2023-03-20T02:38:31.861Z,36.17
2023-03-20T02:41:15.255Z,35.42
2023-03-20T02:44:01.541Z,34.92
2023-03-20T02:46:43.393Z,31.85
2023-03-20T02:49:36.642Z,42.80
2023-03-20T02:52:19.628Z,37.55
2023-03-20T02:55:02.369Z,43.28
2023-03-20T02:57:45.219Z,38.72
2023-03-20T03:00:28.479Z,36.20
2023-03-20T03:03:11.055Z,32.05
2023-03-20T03:05:51.155Z,35.20
2023-03-20T03:08:27.689Z,31.98
2023-03-20T03:11:06.524Z,31.85
2023-03-20T03:13:45.536Z,31.17
2023-03-20T03:16:23.741Z,34.65
2023-03-20T03:19:06.738Z,39.13
2023-03-20T03:24:40.438Z,38.45
2023-03-20T03:27:22.169Z,32.30
2023-03-20T03:29:59.205Z,30.08
2023-03-20T03:32:37.774Z,31.70
2023-03-20T03:35:17.900Z,29.55
2023-03-20T03:37:59.815Z,35.75
2023-03-20T03:40:37.842Z,32.45
2023-03-20T03:43:19.197Z,37.00
2023-03-20T03:45:59.266Z,26.92
2023-03-20T03:48:37.711Z,27.42
2023-03-20T03:51:15.795Z,31.95
2023-03-20T03:54:10.257Z,34.97
2023-03-20T03:56:48.447Z,32.83
2023-03-20T03:59:28.618Z,25.63
2023-03-20T04:02:05.849Z,27.83
2023-03-20T04:04:44.940Z,27.80
2023-03-20T04:07:18.590Z,26.63
2023-03-20T04:09:52.055Z,30.40
2023-03-20T04:12:37.296Z,23.70
2023-03-20T04:15:15.912Z,28.42
2023-03-20T04:17:49.618Z,27.13
2023-03-20T04:20:24.569Z,23.38
2023-03-20T04:22:58.088Z,31.55
2023-03-20T04:25:33.067Z,27.27
2023-03-20T04:28:07.526Z,33.78
2023-03-20T04:30:56.132Z,30.23
2023-03-20T04:33:52.849Z,29.98
2023-03-20T04:36:37.768Z,27.70
2023-03-20T04:39:13.972Z,25.77
2023-03-20T04:41:47.989Z,24.15
2023-03-20T04:44:21.716Z,30.35
2023-03-20T04:46:56.827Z,26.85
2023-03-20T04:49:30.669Z,24.00
2023-03-20T04:52:04.190Z,24.08
2023-03-20T04:54:47.280Z,24.63
2023-03-20T04:57:20.746Z,15.52
2023-03-20T04:59:54.504Z,21.52
2023-03-20T05:02:30.391Z,25.48
2023-03-20T05:05:04.084Z,25.13
2023-03-20T05:07:38.457Z,22.85
2023-03-20T05:10:15.486Z,22.58
2023-03-20T05:13:09.184Z,27.48
2023-03-20T05:15:57.299Z,28.33
2023-03-20T05:19:02.630Z,26.08
2023-03-20T05:22:02.375Z,26.95
2023-03-20T05:24:58.633Z,20.95
2023-03-20T05:27:32.142Z,25.45
2023-03-20T05:30:28.484Z,27.50
2023-03-20T05:33:01.973Z,25.40
2023-03-20T05:35:37.037Z,25.83
2023-03-20T05:38:27.967Z,23.88
2023-03-20T05:41:15.836Z,28.67
2023-03-20T05:44:07.629Z,25.40
2023-03-20T05:47:02.879Z,32.22
2023-03-20T05:50:09.500Z,27.10
2023-03-20T05:53:22.531Z,24.95
2023-03-20T05:56:08.760Z,31.17
2023-03-20T05:58:55.993Z,30.05
2023-03-20T06:01:32.070Z,24.48
2023-03-20T06:04:14.959Z,26.38
2023-03-20T06:07:17.787Z,28.15
2023-03-20T06:10:00.989Z,28.48
2023-03-20T06:12:35.783Z,21.45
2023-03-20T06:15:10.007Z,24.67
2023-03-20T06:17:47.680Z,19.17
2023-03-20T06:20:22.004Z,31.08
2023-03-20T06:22:55.740Z,22.23
2023-03-20T06:25:31.710Z,24.15
2023-03-20T06:28:05.496Z,21.95
2023-03-20T06:30:39.350Z,22.58
2023-03-20T06:33:15.110Z,20.52
2023-03-20T06:36:03.598Z,22.35
2023-03-20T06:38:38.366Z,27.98
2023-03-20T06:41:31.863Z,23.65
2023-03-20T06:44:11.037Z,19.42
2023-03-20T06:47:03.088Z,26.90
2023-03-20T06:49:37.860Z,23.65
2023-03-20T06:52:17.343Z,26.77
2023-03-20T06:54:56.344Z,19.65
2023-03-20T06:57:31.540Z,23.05
2023-03-20T07:00:05.701Z,22.58
2023-03-20T07:02:39.789Z,21.98
2023-03-20T07:05:13.617Z,24.45
2023-03-20T07:07:47.717Z,24.10
2023-03-20T07:10:21.510Z,22.38
2023-03-20T07:13:00.309Z,29.25
2023-03-20T07:15:34.249Z,22.90
2023-03-20T07:18:08.541Z,23.33
2023-03-20T07:20:42.073Z,22.58
2023-03-20T07:23:15.632Z,25.77
2023-03-20T07:25:49.157Z,28.50
2023-03-20T07:28:27.117Z,20.98
2023-03-20T07:31:21.313Z,21.35
2023-03-20T07:33:58.203Z,20.35
2023-03-20T07:36:31.688Z,23.52
2023-03-20T07:39:06.333Z,19.38
2023-03-20T07:41:41.808Z,17.05
2023-03-20T07:44:19.365Z,17.02
2023-03-20T07:46:59.114Z,21.23
2023-03-20T07:49:32.725Z,13.13
2023-03-20T07:52:07.136Z,15.25
2023-03-20T07:54:40.650Z,16.25
2023-03-20T07:57:14.211Z,15.05
2023-03-20T07:59:49.259Z,15.02
2023-03-20T08:02:22.744Z,14.25
2023-03-20T08:04:56.206Z,15.73
2023-03-20T08:07:30.068Z,16.55
2023-03-20T08:10:04.676Z,12.18
2023-03-20T08:12:38.182Z,15.27
2023-03-20T08:15:13.475Z,16.58
2023-03-20T08:17:47.638Z,16.98
2023-03-20T08:20:21.822Z,13.15
2023-03-20T08:22:55.504Z,11.55
2023-03-20T08:25:32.610Z,12.32
2023-03-20T08:28:06.103Z,8.80
2023-03-20T08:30:41.049Z,9.32
2023-03-20T08:33:15.348Z,6.47
2023-03-20T08:35:57.408Z,8.40
2023-03-20T08:38:30.931Z,8.32
2023-03-20T08:41:04.635Z,8.75
2023-03-20T08:43:38.139Z,6.13
2023-03-20T08:46:13.096Z,9.45
2023-03-20T08:48:46.649Z,8.15
2023-03-20T08:51:20.517Z,7.15
2023-03-20T08:53:53.994Z,13.88
2023-03-20T08:56:27.525Z,8.27
2023-03-20T08:59:01.002Z,8.05
2023-03-20T09:01:48.761Z,12.40
2023-03-20T09:04:23.442Z,9.90
2023-03-20T09:06:57.091Z,12.07
2023-03-20T09:09:30.794Z,11.70
2023-03-20T09:12:04.286Z,8.40
2023-03-20T09:14:38.484Z,10.20
2023-03-20T09:17:13.383Z,8.88
2023-03-20T09:19:46.945Z,6.70
2023-03-20T09:22:20.582Z,9.45
2023-03-20T09:24:54.051Z,5.80
2023-03-20T09:27:27.720Z,8.55
2023-03-20T09:30:01.191Z,7.65
2023-03-20T09:32:36.337Z,7.22
2023-03-20T09:35:10.494Z,6.38
2023-03-20T09:37:44.075Z,7.78
2023-03-20T09:40:27.406Z,5.68
2023-03-20T09:43:08.250Z,5.18
2023-03-20T09:45:51.598Z,5.45
2023-03-20T09:48:34.390Z,7.80
2023-03-20T09:51:16.099Z,6.90
2023-03-20T09:53:56.270Z,4.40
2023-03-20T09:56:31.256Z,6.85
2023-03-20T09:59:06.905Z,5.07
2023-03-20T10:01:48.164Z,10.45
2023-03-20T10:04:27.223Z,9.02
2023-03-20T10:07:00.782Z,6.88
2023-03-20T10:09:34.837Z,6.63
2023-03-20T10:12:24.406Z,5.43
2023-03-20T10:15:08.596Z,8.98
2023-03-20T10:17:52.835Z,8.45
2023-03-20T10:20:34.557Z,6.43
2023-03-20T10:23:14.628Z,6.03
2023-03-20T10:25:53.043Z,6.82
2023-03-20T10:28:33.546Z,7.97
2023-03-20T10:31:20.025Z,9.27
2023-03-20T10:34:05.292Z,6.05
2023-03-20T10:36:51.751Z,6.18
2023-03-20T10:39:36.673Z,7.78
2023-03-20T10:42:16.777Z,7.95
2023-03-20T10:44:54.910Z,5.40
2023-03-20T10:47:32.395Z,6.28
2023-03-20T10:50:10.303Z,6.50
2023-03-20T10:52:48.167Z,7.75
2023-03-20T10:55:25.698Z,9.98
2023-03-20T10:58:04.457Z,6.47
2023-03-20T11:00:38.348Z,5.90
2023-03-20T11:03:21.998Z,7.10
2023-03-20T11:06:09.341Z,6.20
2023-03-20T11:08:49.457Z,4.60
2023-03-20T11:11:25.051Z,5.53
2023-03-20T11:13:58.788Z,6.03
2023-03-20T11:16:36.826Z,6.93
2023-03-20T11:19:14.520Z,8.23
2023-03-20T11:21:49.728Z,6.93
2023-03-20T11:24:34.585Z,6.40
2023-03-20T11:27:10.728Z,9.60
2023-03-20T11:29:47.892Z,4.97
2023-03-20T11:32:28.758Z,5.68
2023-03-20T11:35:19.388Z,7.20
2023-03-20T11:37:54.685Z,5.18
2023-03-20T11:40:33.203Z,8.27
2023-03-20T11:43:13.234Z,5.93
2023-03-20T11:45:49.478Z,8.25
2023-03-20T11:48:25.435Z,8.80
2023-03-20T11:51:05.882Z,6.13
2023-03-20T11:53:41.915Z,6.63
2023-03-20T11:56:24.013Z,5.80
2023-03-20T11:58:59.501Z,5.25
2023-03-20T12:01:44.700Z,5.85
2023-03-20T12:04:19.947Z,7.53
2023-03-20T12:06:57.207Z,7.68
2023-03-20T12:09:38.254Z,6.20
2023-03-20T12:12:23.733Z,5.47
2023-03-20T12:15:04.844Z,7.25
2023-03-20T12:17:47.421Z,5.15
2023-03-20T12:20:36.653Z,6.95
2023-03-20T12:23:15.108Z,9.23
2023-03-20T12:25:55.290Z,4.97
2023-03-20T12:28:35.995Z,7.45
2023-03-20T12:31:22.038Z,7.75
2023-03-20T12:34:01.538Z,5.80
2023-03-20T12:36:37.267Z,4.65
2023-03-20T12:39:16.033Z,9.13
2023-03-20T12:42:02.233Z,5.10
2023-03-20T12:44:42.766Z,6.10
2023-03-20T12:47:28.711Z,7.10
2023-03-20T12:50:11.626Z,5.60
2023-03-20T12:52:53.251Z,5.70
2023-03-20T12:55:39.375Z,7.15
2023-03-20T12:58:24.793Z,6.72
2023-03-20T13:01:05.840Z,5.32
2023-03-20T13:04:06.448Z,5.28
2023-03-20T13:06:51.621Z,4.68
2023-03-20T13:10:02.938Z,10.05
2023-03-20T13:12:47.626Z,5.80
2023-03-20T13:15:29.196Z,4.70
2023-03-20T13:18:12.349Z,6.00
2023-03-20T13:20:52.172Z,5.25
2023-03-20T13:23:30.470Z,5.32
2023-03-20T13:26:30.763Z,10.25
2023-03-20T13:29:10.329Z,4.65
2023-03-20T13:31:54.732Z,5.07
2023-03-20T13:34:43.886Z,5.20
2023-03-20T13:37:24.394Z,5.00
2023-03-20T13:40:05.944Z,5.60
2023-03-20T13:42:45.553Z,4.90
2023-03-20T13:45:32.241Z,4.65
2023-03-20T13:48:18.813Z,4.63
2023-03-20T13:51:02.187Z,5.43
2023-03-20T13:53:45.813Z,4.95
2023-03-20T13:56:28.421Z,7.13
2023-03-20T13:59:15.766Z,10.25
2023-03-20T14:01:56.784Z,6.90
2023-03-20T14:04:31.956Z,7.35
2023-03-20T14:07:30.246Z,7.75
2023-03-20T14:10:38.248Z,5.03
2023-03-20T14:13:16.575Z,4.53
2023-03-20T14:15:55.451Z,4.05
2023-03-20T14:18:29.237Z,7.05
2023-03-20T14:21:05.571Z,6.70
2023-03-20T14:23:44.418Z,10.15
2023-03-20T14:26:35.968Z,6.68
2023-03-20T14:29:33.475Z,6.00
2023-03-20T14:32:24.708Z,9.35
2023-03-20T14:35:02.425Z,8.90
2023-03-20T14:37:52.064Z,10.27
2023-03-20T14:40:31.856Z,7.45
2023-03-20T14:43:15.075Z,10.40
2023-03-20T14:45:55.713Z,6.15
2023-03-20T14:48:37.642Z,9.60
2023-03-20T14:51:23.541Z,15.40
2023-03-20T14:53:58.594Z,11.25
2023-03-20T14:56:35.181Z,10.05
2023-03-20T14:59:12.633Z,11.32
2023-03-20T15:01:49.094Z,10.38
2023-03-20T15:04:29.562Z,12.63
2023-03-20T15:07:07.572Z,14.45
2023-03-20T15:09:44.579Z,12.02
2023-03-20T15:12:24.989Z,14.63
2023-03-20T15:15:03.537Z,13.43
2023-03-20T15:17:38.802Z,14.48
2023-03-20T15:20:17.777Z,17.63
2023-03-20T15:22:52.668Z,10.98
2023-03-20T15:25:32.020Z,10.13
2023-03-20T15:28:09.609Z,9.57
2023-03-20T15:30:44.530Z,9.82
2023-03-20T15:33:21.182Z,7.35
2023-03-20T15:35:55.174Z,9.38
2023-03-20T15:38:32.541Z,10.15
2023-03-20T15:41:07.289Z,14.18
2023-03-20T15:43:42.425Z,8.07
2023-03-20T15:46:18.330Z,11.27
2023-03-20T15:48:52.422Z,8.40
2023-03-20T15:51:28.804Z,9.52
2023-03-20T15:54:07.997Z,9.60
2023-03-20T15:56:43.904Z,10.65
2023-03-20T15:59:21.217Z,11.57
2023-03-20T16:01:58.155Z,9.90
2023-03-20T16:04:31.869Z,13.27
2023-03-20T16:07:05.517Z,9.30
2023-03-20T16:09:45.452Z,9.43
2023-03-20T16:12:19.844Z,14.32
2023-03-20T16:14:55.775Z,12.63
2023-03-20T16:17:29.568Z,9.40
2023-03-20T16:20:03.835Z,11.85
2023-03-20T16:22:37.355Z,11.77
2023-03-20T16:25:15.519Z,8.00
2023-03-20T16:27:52.891Z,9.65
2023-03-20T16:30:31.597Z,13.25
2023-03-20T16:33:10.686Z,9.35
2023-03-20T16:35:46.617Z,15.65
2023-03-20T16:38:26.867Z,25.17
2023-03-20T16:41:17.606Z,32.05
2023-03-20T16:43:51.916Z,107.22
2023-03-20T16:46:29.099Z,131.38
2023-03-20T16:49:36.789Z,67.55
2023-03-20T16:52:14.434Z,30.23
2023-03-20T16:54:48.120Z,17.73
2023-03-20T16:57:22.139Z,16.88
2023-03-20T16:59:59.796Z,12.18
2023-03-20T17:02:39.090Z,24.08
2023-03-20T17:05:14.693Z,18.85
2023-03-20T17:07:51.846Z,16.17
2023-03-20T17:10:28.181Z,17.77
2023-03-20T17:13:01.849Z,26.30
2023-03-20T17:15:35.491Z,31.60
2023-03-20T17:18:14.387Z,15.45
2023-03-20T17:20:47.960Z,17.27
2023-03-20T17:23:23.682Z,17.50
2023-03-20T17:25:57.329Z,23.00
2023-03-20T17:28:36.037Z,12.40
2023-03-20T17:31:14.059Z,28.50
2023-03-20T17:33:49.217Z,12.43
2023-03-20T17:36:25.693Z,19.30
2023-03-20T17:39:00.395Z,120.30
2023-03-20T17:41:33.930Z,87.75
2023-03-20T17:44:07.518Z,100.45
2023-03-20T17:46:56.672Z,99.95
2023-03-20T17:49:33.054Z,86.00
2023-03-20T17:52:06.751Z,85.47
2023-03-20T17:54:40.273Z,99.90
2023-03-20T17:57:22.110Z,89.35
2023-03-20T17:59:55.759Z,95.20
2023-03-20T18:02:29.820Z,163.55
2023-03-20T18:05:07.943Z,142.43
2023-03-20T18:07:41.793Z,58.13
2023-03-20T18:10:22.083Z,66.20
2023-03-20T18:12:55.790Z,123.85
2023-03-20T18:15:29.573Z,157.10
2023-03-20T18:18:03.147Z,108.25
2023-03-20T18:20:41.187Z,97.25
2023-03-20T18:23:15.962Z,144.70
2023-03-20T18:25:49.853Z,143.65
2023-03-20T18:28:24.542Z,122.07
2023-03-20T18:30:58.172Z,135.15
2023-03-20T18:33:31.925Z,135.60
2023-03-20T18:36:07.852Z,117.65
2023-03-20T18:38:41.421Z,123.43
2023-03-20T18:41:15.282Z,105.35
2023-03-20T18:43:48.841Z,108.07
2023-03-20T18:46:23.856Z,100.30
2023-03-20T18:48:58.100Z,96.78
2023-03-20T18:51:33.040Z,117.30
2023-03-20T18:54:07.067Z,90.57
2023-03-20T18:56:41.114Z,98.63
2023-03-20T18:59:14.985Z,122.65
2023-03-20T19:01:49.373Z,69.13
2023-03-20T19:04:23.497Z,54.72
2023-03-20T19:06:58.536Z,60.60
2023-03-20T19:09:32.145Z,57.42
2023-03-20T19:12:06.294Z,71.63
2023-03-20T19:14:41.119Z,73.00
2023-03-20T19:17:14.743Z,206.02
2023-03-20T19:19:48.385Z,118.35
2023-03-20T19:22:29.676Z,153.90
2023-03-20T19:25:04.274Z,140.85
2023-03-20T19:27:37.948Z,143.20
2023-03-20T19:30:25.719Z,217.25
2023-03-20T19:32:59.935Z,112.47
2023-03-20T19:38:30.623Z,81.40
2023-03-20T19:41:08.669Z,70.85
2023-03-20T19:43:52.103Z,107.60
2023-03-20T19:46:39.750Z,86.18
2023-03-20T19:49:19.950Z,61.33
2023-03-20T19:51:53.856Z,69.00
2023-03-20T19:54:29.531Z,50.45
2023-03-20T19:57:03.301Z,50.25
2023-03-20T19:59:43.642Z,42.63
2023-03-20T20:02:17.787Z,52.88
2023-03-20T20:04:51.747Z,50.45
2023-03-20T20:08:06.208Z,56.05
2023-03-20T20:10:21.760Z,45.42
2023-03-20T20:12:55.782Z,59.25
2023-03-20T20:15:32.343Z,54.50
2023-03-20T20:18:06.234Z,87.32
2023-03-20T20:21:27.313Z,114.13
2023-03-20T20:23:38.248Z,83.55
2023-03-20T20:26:13.327Z,95.57
2023-03-20T20:28:47.025Z,83.60
2023-03-20T20:31:28.420Z,74.80
2023-03-20T20:34:55.556Z,77.53
2023-03-20T20:37:51.205Z,85.90
2023-03-20T20:39:50.463Z,89.90
2023-03-20T20:42:26.433Z,100.82
2023-03-20T20:45:00.074Z,93.03
2023-03-20T20:47:33.758Z,83.90
2023-03-20T20:50:09.342Z,74.55
2023-03-20T20:52:43.707Z,93.10
2023-03-20T20:55:25.091Z,85.00
2023-03-20T20:58:01.360Z,90.97
2023-03-20T21:00:49.002Z,88.78
2023-03-20T21:03:24.701Z,76.80
2023-03-20T21:05:58.245Z,73.38
2023-03-20T21:08:31.802Z,71.22
2023-03-20T21:11:05.520Z,82.13
2023-03-20T21:13:40.515Z,72.80
2023-03-20T21:16:14.789Z,82.93
2023-03-20T21:18:48.726Z,77.00
2023-03-20T21:21:22.270Z,73.97
2023-03-20T21:23:55.775Z,83.93
2023-03-20T21:26:29.227Z,77.93
2023-03-20T21:29:06.283Z,84.57
2023-03-20T21:31:39.733Z,81.97
2023-03-20T21:34:13.856Z,73.70
2023-03-20T21:36:49.094Z,73.68
2023-03-20T21:39:22.906Z,76.88
2023-03-20T21:41:56.422Z,76.72
2023-03-20T21:45:13.284Z,80.43
2023-03-20T21:50:49.440Z,86.82
2023-03-20T21:56:50.439Z,79.80
2023-03-20T22:02:12.239Z,66.53
2023-03-20T22:17:22.003Z,69.78
2023-03-20T22:25:53.105Z,59.88
2023-03-20T22:40:43.093Z,62.20
2023-03-20T22:45:31.516Z,64.13
2023-03-20T22:48:12.890Z,56.38
2023-03-20T22:50:48.851Z,61.53
2023-03-20T22:53:23.714Z,51.38
2023-03-20T22:55:57.262Z,54.92
2023-03-20T22:58:31.018Z,53.60
2023-03-20T23:01:04.767Z,61.95
2023-03-20T23:03:41.947Z,54.45
2023-03-20T23:06:21.253Z,50.00
2023-03-20T23:08:59.767Z,58.22
2023-03-20T23:11:37.093Z,51.20
2023-03-20T23:14:20.569Z,45.85
2023-03-20T23:16:55.497Z,53.40
2023-03-20T23:19:31.988Z,51.03
2023-03-20T23:22:05.496Z,45.92
2023-03-20T23:24:41.349Z,50.67
2023-03-20T23:27:14.883Z,47.83
2023-03-20T23:29:48.365Z,42.97
2023-03-20T23:32:21.843Z,46.67
2023-03-20T23:34:55.337Z,48.25
2023-03-20T23:37:28.839Z,46.45
2023-03-20T23:40:04.564Z,45.47
2023-03-20T23:42:38.201Z,42.10
2023-03-20T23:45:20.091Z,46.78
2023-03-20T23:47:54.269Z,50.50
2023-03-20T23:50:39.601Z,51.00
2023-03-20T23:53:20.979Z,42.42
2023-03-20T23:55:57.575Z,40.85
2023-03-20T23:58:31.033Z,35.42
